createdAt,value
2023-01-26T00:01:11.540Z,24.40
2023-01-26T00:03:41.084Z,24.93
2023-01-26T00:06:10.216Z,26.00
2023-01-26T00:08:38.474Z,24.23
2023-01-26T00:11:07.322Z,24.57
2023-01-26T00:13:35.822Z,24.97
2023-01-26T00:16:04.405Z,22.47
2023-01-26T00:18:32.689Z,24.80
2023-01-26T00:21:03.303Z,25.00
2023-01-26T00:23:32.522Z,25.27
2023-01-26T00:26:00.680Z,23.87
2023-01-26T00:28:29.455Z,24.77
2023-01-26T00:31:03.773Z,24.43
2023-01-26T00:33:32.097Z,24.60
2023-01-26T00:36:01.630Z,24.27
2023-01-26T00:38:29.850Z,24.77
2023-01-26T00:40:57.991Z,25.77
2023-01-26T00:43:26.254Z,27.00
2023-01-26T00:45:54.488Z,27.80
2023-01-26T00:48:24.657Z,28.43
2023-01-26T00:50:53.205Z,27.53
2023-01-26T00:53:22.754Z,28.00
2023-01-26T00:55:53.328Z,27.90
2023-01-26T00:58:21.486Z,27.93
2023-01-26T01:00:49.656Z,28.00
2023-01-26T01:03:17.865Z,29.03
2023-01-26T01:05:46.075Z,28.60
2023-01-26T01:08:14.251Z,28.10
2023-01-26T01:10:43.779Z,28.30
2023-01-26T01:13:12.021Z,26.53
2023-01-26T01:15:40.341Z,27.87
2023-01-26T01:18:08.535Z,27.93
2023-01-26T01:20:36.642Z,27.60
2023-01-26T01:23:04.819Z,27.50
2023-01-26T01:25:34.760Z,27.80
2023-01-26T01:28:04.257Z,27.40
2023-01-26T01:30:32.444Z,27.37
2023-01-26T01:33:00.624Z,27.73
2023-01-26T01:35:29.415Z,25.77
2023-01-26T01:37:57.626Z,26.87
2023-01-26T01:40:25.822Z,26.90
2023-01-26T01:42:54.039Z,28.03
2023-01-26T01:45:46.309Z,28.33
2023-01-26T01:48:22.283Z,27.00
2023-01-26T01:50:51.465Z,26.40
2023-01-26T01:53:24.559Z,26.83
2023-01-26T01:55:54.715Z,25.90
2023-01-26T01:58:23.463Z,26.30
2023-01-26T02:00:51.682Z,26.37
2023-01-26T02:03:21.437Z,27.60
2023-01-26T02:05:55.893Z,27.47
2023-01-26T02:08:27.093Z,27.97
2023-01-26T02:10:56.903Z,27.00
2023-01-26T02:13:25.433Z,27.83
2023-01-26T02:15:53.776Z,27.17
2023-01-26T02:18:23.332Z,26.90
2023-01-26T02:20:52.264Z,27.30
2023-01-26T02:23:27.667Z,28.80
2023-01-26T02:26:16.929Z,29.07
2023-01-26T02:28:47.636Z,29.43
2023-01-26T02:31:15.999Z,29.93
2023-01-26T02:33:44.922Z,30.43
2023-01-26T02:36:19.200Z,27.43
2023-01-26T02:38:50.751Z,29.30
2023-01-26T02:41:40.083Z,30.07
2023-01-26T02:44:10.163Z,31.37
2023-01-26T02:46:38.498Z,31.83
2023-01-26T02:49:24.592Z,33.47
2023-01-26T02:51:52.761Z,31.50
2023-01-26T02:54:38.775Z,33.03
2023-01-26T02:57:06.934Z,33.07
2023-01-26T02:59:36.448Z,30.27
2023-01-26T03:02:04.914Z,29.33
2023-01-26T03:04:33.136Z,28.23
2023-01-26T03:07:01.336Z,30.07
2023-01-26T03:09:29.496Z,30.27
2023-01-26T03:11:57.738Z,27.03
2023-01-26T03:14:25.969Z,29.53
2023-01-26T03:16:55.776Z,31.47
2023-01-26T03:19:41.502Z,32.30
2023-01-26T03:22:28.318Z,28.80
2023-01-26T03:25:14.384Z,33.10
2023-01-26T03:27:43.601Z,30.90
2023-01-26T03:30:12.649Z,28.50
2023-01-26T03:32:42.351Z,31.77
2023-01-26T03:35:14.994Z,29.47
2023-01-26T03:37:43.733Z,29.47
2023-01-26T03:40:30.701Z,30.33
2023-01-26T03:43:16.621Z,32.33
2023-01-26T03:46:02.356Z,29.13
2023-01-26T03:48:49.420Z,29.03
2023-01-26T03:51:35.369Z,26.60
2023-01-26T03:54:21.252Z,26.77
2023-01-26T03:56:49.440Z,27.13
2023-01-26T03:59:17.700Z,28.43
2023-01-26T04:02:04.860Z,28.63
2023-01-26T04:04:52.421Z,28.30
2023-01-26T04:07:38.058Z,28.73
2023-01-26T04:10:06.489Z,26.43
2023-01-26T04:12:34.934Z,26.30
2023-01-26T04:15:20.740Z,24.57
2023-01-26T04:18:06.676Z,25.03
2023-01-26T04:20:54.223Z,24.93
2023-01-26T04:23:22.697Z,24.73
2023-01-26T04:25:50.888Z,24.20
2023-01-26T04:28:19.066Z,25.57
2023-01-26T04:30:47.274Z,27.17
2023-01-26T04:33:15.478Z,27.80
2023-01-26T04:35:44.992Z,29.63
2023-01-26T04:38:13.135Z,26.27
2023-01-26T04:40:41.315Z,29.40
2023-01-26T04:43:09.545Z,27.77
2023-01-26T04:45:37.721Z,28.40
2023-01-26T04:48:06.153Z,27.10
2023-01-26T04:50:34.365Z,27.23
2023-01-26T04:53:03.924Z,29.43
2023-01-26T04:55:32.088Z,29.77
2023-01-26T04:58:00.389Z,29.03
2023-01-26T05:00:28.900Z,30.07
2023-01-26T05:02:57.096Z,29.80
2023-01-26T05:05:25.291Z,28.37
2023-01-26T05:07:53.445Z,31.43
2023-01-26T05:10:23.152Z,32.83
2023-01-26T05:12:51.323Z,35.37
2023-01-26T05:15:19.484Z,42.43
2023-01-26T05:17:47.692Z,47.03
2023-01-26T05:20:16.066Z,49.00
2023-01-26T05:22:44.235Z,54.97
2023-01-26T05:25:12.438Z,58.73
2023-01-26T05:27:41.928Z,62.90
2023-01-26T05:30:13.433Z,70.93
2023-01-26T05:32:42.824Z,82.93
2023-01-26T05:35:11.148Z,88.67
2023-01-26T05:37:39.448Z,100.93
2023-01-26T05:40:08.367Z,102.50
2023-01-26T05:42:36.671Z,110.00
2023-01-26T05:45:07.064Z,115.47
2023-01-26T05:47:35.244Z,123.73
2023-01-26T05:50:03.446Z,141.20
2023-01-26T05:52:31.651Z,143.30
2023-01-26T05:54:59.844Z,158.20
2023-01-26T05:57:28.014Z,198.60
2023-01-26T05:59:56.274Z,212.20
2023-01-26T06:02:27.250Z,227.47
2023-01-26T06:04:55.503Z,239.23
2023-01-26T06:07:23.713Z,270.07
2023-01-26T06:09:51.832Z,275.30
2023-01-26T06:12:20.678Z,309.63
2023-01-26T06:14:48.960Z,302.57
2023-01-26T06:17:17.883Z,305.57
2023-01-26T06:19:47.533Z,307.00
2023-01-26T06:22:16.135Z,331.97
2023-01-26T06:24:44.302Z,344.03
2023-01-26T06:27:14.172Z,363.50
2023-01-26T06:29:42.815Z,398.67
2023-01-26T06:32:12.412Z,434.87
2023-01-26T06:34:40.663Z,465.43
2023-01-26T06:37:10.439Z,471.73
2023-01-26T06:39:38.651Z,506.50
2023-01-26T06:42:07.003Z,584.03
2023-01-26T06:44:35.283Z,593.87
2023-01-26T06:47:03.489Z,591.63
2023-01-26T06:49:31.660Z,624.83
2023-01-26T06:52:01.009Z,605.27
2023-01-26T06:54:30.491Z,664.23
2023-01-26T06:56:58.682Z,663.80
2023-01-26T06:59:26.895Z,675.17
2023-01-26T07:01:55.074Z,689.20
2023-01-26T07:04:27.464Z,668.30
2023-01-26T07:06:55.655Z,649.37
2023-01-26T07:09:23.897Z,661.77
2023-01-26T07:11:53.417Z,679.67
2023-01-26T07:14:21.727Z,712.87
2023-01-26T07:16:49.920Z,665.40
2023-01-26T07:19:18.121Z,705.87
2023-01-26T07:21:46.335Z,685.87
2023-01-26T07:24:14.565Z,645.97
2023-01-26T07:26:42.752Z,603.77
2023-01-26T07:29:12.302Z,639.60
2023-01-26T07:31:41.448Z,568.80
2023-01-26T07:34:10.963Z,533.47
2023-01-26T07:36:39.181Z,476.47
2023-01-26T07:39:08.628Z,445.93
2023-01-26T07:41:36.988Z,391.60
2023-01-26T07:44:08.364Z,389.93
2023-01-26T07:46:38.105Z,350.00
2023-01-26T07:49:06.385Z,333.63
2023-01-26T07:51:34.579Z,313.97
2023-01-26T07:54:02.743Z,279.17
2023-01-26T07:56:30.997Z,255.20
2023-01-26T07:59:01.765Z,243.97
2023-01-26T08:01:31.806Z,209.37
2023-01-26T08:04:01.398Z,176.27
2023-01-26T08:06:29.568Z,159.60
2023-01-26T08:08:57.956Z,153.50
2023-01-26T08:11:26.864Z,138.13
2023-01-26T08:13:55.079Z,127.60
2023-01-26T08:16:23.328Z,117.70
2023-01-26T08:18:51.527Z,109.63
2023-01-26T08:21:21.083Z,117.23
2023-01-26T08:23:50.973Z,117.77
2023-01-26T08:26:19.690Z,126.73
2023-01-26T08:28:48.313Z,116.67
2023-01-26T08:31:19.857Z,117.03
2023-01-26T08:33:48.568Z,116.37
2023-01-26T08:36:17.199Z,117.67
2023-01-26T08:38:46.729Z,125.50
2023-01-26T08:41:15.168Z,123.13
2023-01-26T08:43:43.415Z,133.80
2023-01-26T08:46:11.686Z,151.77
2023-01-26T08:48:39.923Z,155.30
2023-01-26T08:51:09.210Z,138.03
2023-01-26T08:53:38.269Z,132.53
2023-01-26T08:56:09.659Z,124.27
2023-01-26T08:58:38.202Z,126.97
2023-01-26T09:01:06.792Z,126.47
2023-01-26T09:03:35.554Z,120.67
2023-01-26T09:06:04.460Z,131.53
2023-01-26T09:08:32.858Z,130.53
2023-01-26T09:11:01.131Z,122.97
2023-01-26T09:13:34.712Z,121.37
2023-01-26T09:16:05.082Z,137.80
2023-01-26T09:18:33.707Z,185.53
2023-01-26T09:21:05.409Z,206.30
2023-01-26T09:23:34.082Z,192.37
2023-01-26T09:26:02.630Z,183.20
2023-01-26T09:28:32.461Z,198.67
2023-01-26T09:31:04.508Z,206.97
2023-01-26T09:33:32.854Z,212.40
2023-01-26T09:36:04.636Z,226.90
2023-01-26T09:38:32.901Z,233.20
2023-01-26T09:41:05.851Z,248.67
2023-01-26T09:43:38.282Z,283.80
2023-01-26T09:46:11.455Z,298.93
2023-01-26T09:48:44.130Z,266.10
2023-01-26T09:51:13.951Z,238.77
2023-01-26T09:53:46.757Z,240.23
2023-01-26T09:56:17.642Z,206.90
2023-01-26T09:58:49.020Z,181.43
2023-01-26T10:01:20.529Z,196.53
2023-01-26T10:03:51.954Z,188.93
2023-01-26T10:06:23.217Z,172.47
2023-01-26T10:08:51.868Z,171.30
2023-01-26T10:11:24.753Z,159.37
2023-01-26T10:13:57.583Z,145.33
2023-01-26T10:16:25.866Z,127.93
2023-01-26T10:18:56.126Z,103.37
2023-01-26T10:21:25.475Z,70.80
2023-01-26T10:23:54.023Z,60.33
2023-01-26T10:26:23.089Z,50.67
2023-01-26T10:28:52.369Z,33.90
2023-01-26T10:31:23.015Z,19.23
2023-01-26T10:33:53.520Z,13.77
2023-01-26T10:36:22.452Z,11.10
2023-01-26T10:38:51.535Z,10.20
2023-01-26T10:41:24.522Z,6.97
2023-01-26T10:43:54.217Z,4.20
2023-01-26T10:46:31.634Z,5.00
2023-01-26T10:49:00.877Z,3.73
2023-01-26T10:51:30.765Z,3.53
2023-01-26T10:54:18.712Z,3.80
2023-01-26T10:56:47.684Z,3.53
2023-01-26T10:59:24.921Z,3.23
2023-01-26T11:01:55.468Z,3.53
2023-01-26T11:04:24.210Z,3.00
2023-01-26T11:06:52.532Z,2.90
2023-01-26T11:09:22.077Z,2.50
2023-01-26T11:12:01.727Z,3.60
2023-01-26T11:14:30.601Z,3.63
2023-01-26T11:17:01.815Z,2.93
2023-01-26T11:19:39.728Z,2.77
2023-01-26T11:22:08.825Z,2.93
2023-01-26T11:24:44.279Z,2.57
2023-01-26T11:27:29.834Z,3.10
2023-01-26T11:30:14.693Z,3.03
2023-01-26T11:32:48.418Z,2.90
2023-01-26T11:35:30.715Z,2.93
2023-01-26T11:38:02.766Z,3.40
2023-01-26T11:40:33.772Z,3.47
2023-01-26T11:43:24.585Z,3.20
2023-01-26T11:46:07.721Z,3.50
2023-01-26T11:48:41.003Z,3.80
2023-01-26T11:51:13.258Z,2.73
2023-01-26T11:53:52.395Z,3.10
2023-01-26T11:56:26.966Z,2.83
2023-01-26T11:58:57.758Z,3.50
2023-01-26T12:01:28.976Z,3.00
2023-01-26T12:03:58.822Z,3.00
2023-01-26T12:06:30.131Z,2.50
2023-01-26T12:09:01.084Z,3.07
2023-01-26T12:11:32.607Z,2.50
2023-01-26T12:14:08.312Z,2.83
2023-01-26T12:16:48.604Z,2.40
2023-01-26T12:19:23.217Z,2.40
2023-01-26T12:21:52.168Z,2.23
2023-01-26T12:24:48.461Z,2.80
2023-01-26T12:27:16.081Z,2.60
2023-01-26T12:29:48.477Z,3.87
2023-01-26T12:32:17.246Z,2.97
2023-01-26T12:34:47.140Z,3.33
2023-01-26T12:37:33.264Z,3.53
2023-01-26T12:40:07.413Z,4.50
2023-01-26T12:42:43.915Z,4.20
2023-01-26T12:45:16.336Z,3.43
2023-01-26T12:47:48.807Z,3.00
2023-01-26T12:50:24.982Z,3.40
2023-01-26T12:52:56.256Z,2.77
2023-01-26T12:55:27.090Z,3.00
2023-01-26T12:57:58.433Z,3.13
2023-01-26T13:00:29.878Z,2.37
2023-01-26T13:03:00.229Z,3.40
2023-01-26T13:05:31.851Z,2.60
2023-01-26T13:08:00.095Z,3.03
2023-01-26T13:10:45.677Z,2.43
2023-01-26T13:13:30.465Z,3.57
2023-01-26T13:16:31.964Z,3.20
2023-01-26T13:19:00.610Z,3.83
2023-01-26T13:21:30.521Z,3.50
2023-01-26T13:23:58.774Z,3.33
2023-01-26T13:26:43.674Z,4.40
2023-01-26T13:29:31.999Z,3.77
2023-01-26T13:32:02.043Z,3.80
2023-01-26T13:34:32.957Z,2.63
2023-01-26T13:37:07.127Z,3.00
2023-01-26T13:39:36.696Z,3.50
2023-01-26T13:42:05.611Z,2.77
2023-01-26T13:44:38.537Z,2.87
2023-01-26T13:47:10.181Z,2.53
2023-01-26T13:49:39.539Z,3.00
2023-01-26T13:52:17.499Z,2.93
2023-01-26T13:54:46.108Z,3.20
2023-01-26T13:57:21.568Z,2.83
2023-01-26T13:59:50.831Z,2.57
2023-01-26T14:02:26.399Z,2.47
2023-01-26T14:04:55.534Z,2.23
2023-01-26T14:07:27.136Z,2.70
2023-01-26T14:09:56.579Z,2.07
2023-01-26T14:12:26.127Z,2.93
2023-01-26T14:14:55.811Z,3.20
2023-01-26T14:17:26.937Z,3.07
2023-01-26T14:19:55.284Z,3.33
2023-01-26T14:22:23.518Z,2.67
2023-01-26T14:24:54.038Z,2.30
2023-01-26T14:27:30.223Z,2.70
2023-01-26T14:29:58.738Z,2.33
2023-01-26T14:32:29.873Z,1.83
2023-01-26T14:34:58.866Z,1.67
2023-01-26T14:37:27.702Z,1.93
2023-01-26T14:40:20.201Z,1.50
2023-01-26T14:42:48.758Z,1.80
2023-01-26T14:45:17.053Z,2.57
2023-01-26T14:47:45.893Z,2.50
2023-01-26T14:50:16.923Z,2.37
2023-01-26T14:52:46.589Z,2.20
2023-01-26T14:55:19.075Z,2.50
2023-01-26T14:57:47.284Z,2.40
2023-01-26T15:00:22.117Z,2.43
2023-01-26T15:02:50.927Z,3.03
2023-01-26T15:05:20.730Z,2.30
2023-01-26T15:07:50.777Z,2.20
2023-01-26T15:10:42.859Z,2.73
2023-01-26T15:13:21.147Z,2.20
2023-01-26T15:15:51.050Z,1.70
2023-01-26T15:18:20.800Z,2.30
2023-01-26T15:21:00.173Z,1.70
2023-01-26T15:23:30.315Z,1.70
2023-01-26T15:26:05.791Z,1.97
2023-01-26T15:28:35.681Z,2.20
2023-01-26T15:31:04.187Z,1.57
2023-01-26T15:33:39.577Z,2.00
2023-01-26T15:36:08.331Z,2.10
2023-01-26T15:38:36.633Z,1.90
2023-01-26T15:41:04.816Z,2.53
2023-01-26T15:43:33.094Z,1.30
2023-01-26T15:46:02.642Z,2.63
2023-01-26T15:48:31.884Z,2.33
2023-01-26T15:51:00.089Z,2.37
2023-01-26T15:53:28.434Z,2.20
2023-01-26T15:55:58.705Z,1.47
2023-01-26T15:58:28.793Z,2.13
2023-01-26T16:00:57.147Z,1.37
2023-01-26T16:03:26.773Z,1.53
2023-01-26T16:05:55.405Z,1.37
2023-01-26T16:08:24.036Z,1.40
2023-01-26T16:10:52.333Z,1.33
2023-01-26T16:13:20.756Z,1.47
2023-01-26T16:15:50.284Z,1.37
2023-01-26T16:18:19.840Z,1.70
2023-01-26T16:20:50.730Z,2.00
2023-01-26T16:23:20.722Z,1.77
2023-01-26T16:25:49.227Z,2.37
2023-01-26T16:28:17.495Z,1.60
2023-01-26T16:30:46.282Z,2.13
2023-01-26T16:33:15.281Z,1.87
2023-01-26T16:35:43.932Z,2.90
2023-01-26T16:38:13.699Z,2.23
2023-01-26T16:40:42.159Z,2.40
2023-01-26T16:43:16.022Z,1.90
2023-01-26T16:45:44.385Z,1.90
2023-01-26T16:48:14.064Z,2.30
2023-01-26T16:50:42.985Z,3.50
2023-01-26T16:53:18.488Z,1.87
2023-01-26T16:55:46.758Z,2.10
2023-01-26T16:58:14.987Z,1.80
2023-01-26T17:00:43.712Z,2.43
2023-01-26T17:03:13.019Z,1.67
2023-01-26T17:05:41.863Z,1.77
2023-01-26T17:08:10.216Z,2.00
2023-01-26T17:10:52.016Z,2.40
2023-01-26T17:13:23.924Z,2.60
2023-01-26T17:15:52.147Z,2.50
2023-01-26T17:18:20.364Z,2.33
2023-01-26T17:20:48.926Z,3.07
2023-01-26T17:23:17.201Z,2.53
2023-01-26T17:25:46.876Z,2.70
2023-01-26T17:28:15.118Z,2.30
2023-01-26T17:30:43.450Z,3.20
2023-01-26T17:33:11.695Z,2.60
2023-01-26T17:35:39.949Z,2.27
2023-01-26T17:38:08.164Z,2.53
2023-01-26T17:40:36.706Z,2.80
2023-01-26T17:43:06.261Z,2.43
2023-01-26T17:45:34.540Z,2.50
2023-01-26T17:48:02.798Z,3.23
2023-01-26T17:50:31.015Z,2.13
2023-01-26T17:52:59.217Z,2.57
2023-01-26T17:55:27.514Z,2.07
2023-01-26T17:57:55.761Z,2.33
2023-01-26T18:00:25.463Z,2.00
2023-01-26T18:02:53.648Z,2.10
2023-01-26T18:05:21.828Z,2.30
2023-01-26T18:07:50.091Z,2.30
2023-01-26T18:10:18.688Z,2.23
2023-01-26T18:12:47.019Z,2.10
2023-01-26T18:15:15.421Z,2.57
2023-01-26T18:17:45.053Z,2.00
2023-01-26T18:20:15.024Z,2.17
2023-01-26T18:22:43.257Z,1.83
2023-01-26T18:25:11.924Z,2.10
2023-01-26T18:27:40.298Z,1.87
2023-01-26T18:30:09.465Z,1.77
2023-01-26T18:32:39.079Z,1.40
2023-01-26T18:35:10.383Z,1.90
2023-01-26T18:37:38.982Z,2.63
2023-01-26T18:40:08.315Z,1.40
2023-01-26T18:42:36.576Z,1.70
2023-01-26T18:45:05.729Z,1.70
2023-01-26T18:47:34.143Z,1.47
2023-01-26T18:50:02.581Z,2.40
2023-01-26T18:52:32.346Z,1.80
2023-01-26T18:55:00.558Z,2.10
2023-01-26T18:57:28.863Z,2.47
2023-01-26T18:59:57.271Z,2.37
2023-01-26T19:02:25.571Z,2.13
2023-01-26T19:04:55.140Z,1.50
2023-01-26T19:07:23.361Z,1.67
2023-01-26T19:09:52.995Z,2.07
2023-01-26T19:12:21.462Z,1.90
2023-01-26T19:14:49.720Z,1.70
2023-01-26T19:17:18.111Z,1.97
2023-01-26T19:19:47.625Z,1.60
2023-01-26T19:22:16.265Z,1.73
2023-01-26T19:24:44.577Z,1.70
2023-01-26T19:27:14.147Z,1.73
2023-01-26T19:29:42.357Z,2.90
2023-01-26T19:32:10.628Z,2.60
2023-01-26T19:34:38.934Z,2.30
2023-01-26T19:37:07.772Z,2.40
2023-01-26T19:39:36.471Z,2.50
2023-01-26T19:42:04.802Z,2.27
2023-01-26T19:44:34.392Z,2.40
2023-01-26T19:47:02.637Z,2.43
2023-01-26T19:49:31.006Z,2.43
2023-01-26T19:51:59.221Z,2.57
2023-01-26T19:54:27.826Z,2.30
2023-01-26T19:56:56.009Z,2.40
2023-01-26T19:59:24.817Z,2.37
2023-01-26T20:01:55.028Z,2.43
2023-01-26T20:04:23.315Z,2.20
2023-01-26T20:06:51.516Z,2.30
2023-01-26T20:09:19.874Z,2.73
2023-01-26T20:11:50.284Z,2.57
2023-01-26T20:14:18.790Z,2.43
2023-01-26T20:16:47.082Z,2.37
2023-01-26T20:19:16.778Z,2.83
2023-01-26T20:21:45.502Z,2.97
2023-01-26T20:24:15.359Z,2.67
2023-01-26T20:26:44.361Z,2.13
2023-01-26T20:29:13.772Z,2.10
2023-01-26T20:31:42.274Z,2.10
2023-01-26T20:34:10.653Z,3.17
2023-01-26T20:36:40.461Z,2.70
2023-01-26T20:39:09.682Z,2.17
2023-01-26T20:41:37.934Z,2.23
2023-01-26T20:44:07.257Z,2.40
2023-01-26T20:46:36.335Z,2.30
2023-01-26T20:49:05.186Z,3.03
2023-01-26T20:51:35.669Z,2.43
2023-01-26T20:54:06.575Z,2.50
2023-01-26T20:56:35.465Z,2.80
2023-01-26T20:59:04.247Z,2.63
2023-01-26T21:01:33.828Z,3.33
2023-01-26T21:04:03.141Z,3.20
2023-01-26T21:06:31.424Z,2.80
2023-01-26T21:09:00.510Z,3.30
2023-01-26T21:11:31.213Z,3.53
2023-01-26T21:14:00.639Z,2.60
2023-01-26T21:16:29.572Z,3.10
2023-01-26T21:18:57.886Z,3.23
2023-01-26T21:21:26.148Z,2.57
2023-01-26T21:23:54.408Z,2.97
2023-01-26T21:26:28.388Z,2.97
2023-01-26T21:28:59.491Z,2.80
2023-01-26T21:31:28.698Z,3.40
2023-01-26T21:33:57.563Z,3.10
2023-01-26T21:36:26.272Z,2.37
2023-01-26T21:38:56.049Z,2.87
2023-01-26T21:41:43.092Z,2.97
2023-01-26T21:44:13.392Z,2.97
2023-01-26T21:46:41.789Z,2.50
2023-01-26T21:49:11.113Z,2.93
2023-01-26T21:51:56.944Z,3.00
2023-01-26T21:54:25.179Z,2.63
2023-01-26T21:56:53.628Z,3.40
2023-01-26T21:59:22.312Z,3.00
2023-01-26T22:01:51.426Z,3.00
2023-01-26T22:04:20.713Z,2.80
2023-01-26T22:06:54.376Z,3.53
2023-01-26T22:09:23.847Z,2.70
2023-01-26T22:11:52.816Z,3.23
2023-01-26T22:14:21.983Z,2.60
2023-01-26T22:16:53.250Z,3.00
2023-01-26T22:19:23.120Z,2.63
2023-01-26T22:21:52.596Z,2.60
2023-01-26T22:24:22.049Z,2.93
2023-01-26T22:26:50.431Z,3.50
2023-01-26T22:29:18.619Z,3.47
2023-01-26T22:31:47.102Z,3.07
2023-01-26T22:34:16.773Z,2.70
2023-01-26T22:36:46.027Z,2.90
2023-01-26T22:39:14.302Z,3.40
2023-01-26T22:41:42.484Z,3.33
2023-01-26T22:44:11.063Z,3.77
2023-01-26T22:46:39.450Z,2.50
2023-01-26T22:49:08.406Z,3.63
2023-01-26T22:51:37.984Z,3.97
2023-01-26T22:54:06.674Z,3.33
2023-01-26T22:56:35.160Z,3.50
2023-01-26T22:59:03.815Z,3.87
2023-01-26T23:01:33.222Z,3.43
2023-01-26T23:04:02.097Z,3.67
2023-01-26T23:06:30.385Z,3.70
2023-01-26T23:09:01.104Z,2.97
2023-01-26T23:11:30.200Z,3.07
2023-01-26T23:13:59.118Z,4.03
2023-01-26T23:16:27.479Z,3.33
2023-01-26T23:18:56.690Z,3.57
2023-01-26T23:21:25.387Z,2.93
2023-01-26T23:23:53.616Z,3.37
2023-01-26T23:26:23.312Z,3.00
2023-01-26T23:28:51.555Z,4.13
2023-01-26T23:31:20.288Z,3.63
2023-01-26T23:33:48.875Z,3.70
2023-01-26T23:36:17.393Z,3.73
2023-01-26T23:38:46.331Z,3.53
2023-01-26T23:41:14.611Z,4.30
2023-01-26T23:43:44.208Z,3.70
2023-01-26T23:46:13.425Z,3.30
2023-01-26T23:48:41.721Z,2.97
2023-01-26T23:51:11.252Z,3.23
2023-01-26T23:53:39.767Z,3.60
2023-01-26T23:56:09.170Z,3.23
2023-01-26T23:58:37.836Z,3.30
